| time (UTC) | temp F | wind direction | speed MPH | gust MPH | rain 1hr in | rain 24hr in | rain mn in | humidity % | barometer mb |
| 20260905001006 | 63 | 298 | 12.0 | 16.0 | 0.00 | 0.00 | 0.00 | 66 | 1017.8 |
| 20260905000507 | 63 | 317 | 11.0 | 14.0 | 0.00 | 0.00 | 0.00 | 64 | 1017.8 |
| 20260905000009 | 63 | 327 | 12.0 | 16.0 | 0.00 | 0.00 | 0.00 | 64 | 1017.6 |
| 20260904235507 | 63 | 304 | 24.0 | 33.0 | 0.00 | 0.00 | 0.00 | 67 | 1017.5 |
| 20260904235008 | 63 | 325 | 10.0 | 15.0 | 0.00 | 0.00 | 0.00 | 69 | 1017.5 |
| 20260904234507 | 63 | 315 | 14.0 | 31.0 | 0.00 | 0.00 | 0.00 | 69 | 1017.5 |
| 20260904234008 | 63 | 298 | 20.0 | 24.0 | 0.00 | 0.00 | 0.00 | 71 | 1017.6 |
| 20260904233508 | 63 | 327 | 9.0 | 12.0 | 0.00 | 0.00 | 0.00 | 74 | 1017.4 |
| 20260904233007 | 30 | 0 | 0.0 | 0.0 | 0.00 | 0.00 | 0.00 | 100 | 1017.5 |
| 20260904232506 | 30 | 0 | 0.0 | 0.0 | 0.00 | 0.00 | 0.00 | 100 | 1017.6 |
| 20260904232007 | 30 | 0 | 0.0 | 0.0 | 0.00 | 0.00 | 0.00 | 100 | 1017.6 |
| 20260904231508 | 30 | 0 | 0.0 | 0.0 | 0.00 | 0.00 | 0.00 | 100 | 1017.5 |
| 20260904231008 | 62 | 357 | 15.0 | 16.0 | 0.00 | 0.00 | 0.00 | 75 | 1017.2 |
| 20260904230507 | 62 | 357 | 15.0 | 16.0 | 0.00 | 0.00 | 0.00 | 75 | 1017.2 |
| 20260904230007 | 62 | 11 | 12.0 | 18.0 | 0.00 | 0.00 | 0.00 | 74 | 1016.5 |
| 20260904225507 | 63 | 23 | 17.0 | 22.0 | 0.00 | 0.00 | 0.00 | 74 | 1016.7 |
| 20260904225008 | 63 | 2 | 19.0 | 21.0 | 0.00 | 0.00 | 0.00 | 74 | 1016.9 |
| 20260904224507 | 63 | 12 | 16.0 | 18.0 | 0.00 | 0.00 | 0.00 | 74 | 1016.5 |
| 20260904224008 | 63 | 19 | 21.0 | 25.0 | 0.00 | 0.00 | 0.00 | 73 | 1016.5 |
| 20260904223507 | 63 | 19 | 21.0 | 25.0 | 0.00 | 0.00 | 0.00 | 73 | 1015.7 |
| 20260904223007 | 64 | 16 | 15.0 | 19.0 | 0.00 | 0.00 | 0.00 | 73 | 1015.8 |
| 20260904222507 | 65 | 11 | 17.0 | 17.0 | 0.00 | 0.00 | 0.00 | 70 | 1015.5 |
| 20260904222007 | 66 | 10 | 10.0 | 14.0 | 0.00 | 0.00 | 0.00 | 70 | 1015.6 |
| 20260904221508 | 70 | 54 | 8.0 | 10.0 | 0.00 | 0.00 | 0.00 | 66 | 1015.2 |
| 20260904221008 | 71 | 3 | 6.0 | 6.0 | 0.00 | 0.00 | 0.00 | 65 | 1015.0 |
| 20260904220508 | 74 | 277 | 9.0 | 12.0 | 0.00 | 0.00 | 0.00 | 58 | 1014.8 |
| 20260904220008 | 74 | 277 | 9.0 | 12.0 | 0.00 | 0.00 | 0.00 | 58 | 1014.9 |
| 20260904215507 | 74 | 278 | 9.0 | 14.0 | 0.00 | 0.00 | 0.00 | 58 | 1014.6 |
| 20260904215008 | 74 | 248 | 10.0 | 16.0 | 0.00 | 0.00 | 0.00 | 58 | 1014.4 |
| 20260904214508 | 74 | 255 | 14.0 | 18.0 | 0.00 | 0.00 | 0.00 | 57 | 1014.6 |
| 20260904214008 | 74 | 265 | 15.0 | 16.0 | 0.00 | 0.00 | 0.00 | 57 | 1014.4 |
| 20260904213507 | 74 | 260 | 17.0 | 20.0 | 0.00 | 0.00 | 0.00 | 57 | 1014.3 |
| 20260904213008 | 75 | 259 | 15.0 | 18.0 | 0.00 | 0.00 | 0.00 | 57 | 1014.1 |
| 20260904212508 | 74 | 253 | 15.0 | 18.0 | 0.00 | 0.00 | 0.00 | 57 | 1014.2 |
| 20260904212008 | 75 | 257 | 13.0 | 18.0 | 0.00 | 0.00 | 0.00 | 56 | 1014.2 |
| 20260904211508 | 75 | 254 | 16.0 | 17.0 | 0.00 | 0.00 | 0.00 | 56 | 1013.9 |
| 20260904211007 | 75 | 244 | 16.0 | 20.0 | 0.00 | 0.00 | 0.00 | 55 | 1014.1 |
| 20260904210508 | 75 | 254 | 14.0 | 19.0 | 0.00 | 0.00 | 0.00 | 55 | 1014.2 |
| 20260904210008 | 75 | 259 | 9.0 | 12.0 | 0.00 | 0.00 | 0.00 | 55 | 1013.9 |
| 20260904205507 | 75 | 253 | 17.0 | 20.0 | 0.00 | 0.00 | 0.00 | 55 | 1014.0 |
| 20260904205008 | 76 | 271 | 7.0 | 12.0 | 0.00 | 0.00 | 0.00 | 55 | 1014.2 |
| 20260904204508 | 76 | 258 | 17.0 | 19.0 | 0.00 | 0.00 | 0.00 | 55 | 1014.1 |
| 20260904204008 | 76 | 239 | 10.0 | 15.0 | 0.00 | 0.00 | 0.00 | 54 | 1014.0 |
| 20260904203508 | 76 | 231 | 12.0 | 14.0 | 0.00 | 0.00 | 0.00 | 54 | 1014.1 |
| 20260904203008 | 76 | 244 | 13.0 | 15.0 | 0.00 | 0.00 | 0.00 | 54 | 1014.0 |
| 20260904202508 | 76 | 252 | 9.0 | 13.0 | 0.00 | 0.00 | 0.00 | 54 | 1014.2 |
| 20260904202008 | 76 | 243 | 14.0 | 15.0 | 0.00 | 0.00 | 0.00 | 54 | 1014.2 |
| 20260904201507 | 76 | 232 | 9.0 | 13.0 | 0.00 | 0.00 | 0.00 | 54 | 1014.2 |
| 20260904201008 | 76 | 241 | 11.0 | 13.0 | 0.00 | 0.00 | 0.00 | 54 | 1014.2 |
| 20260904200506 | 76 | 233 | 8.0 | 9.0 | 0.00 | 0.00 | 0.00 | 55 | 1014.3 |
| 20260904200007 | 76 | 251 | 11.0 | 11.0 | 0.00 | 0.00 | 0.00 | 55 | 1014.3 |
| 20260904195507 | 76 | 253 | 12.0 | 13.0 | 0.00 | 0.00 | 0.00 | 55 | 1014.3 |
| 20260904195008 | 76 | 251 | 12.0 | 13.0 | 0.00 | 0.00 | 0.00 | 55 | 1014.3 |
| 20260904194508 | 76 | 253 | 12.0 | 12.0 | 0.00 | 0.00 | 0.00 | 55 | 1014.5 |
| 20260904194008 | 77 | 255 | 12.0 | 13.0 | 0.00 | 0.00 | 0.00 | 54 | 1014.5 |
| 20260904193509 | 77 | 250 | 9.0 | 13.0 | 0.00 | 0.00 | 0.00 | 53 | 1014.6 |
| 20260904193008 | 77 | 250 | 8.0 | 9.0 | 0.00 | 0.00 | 0.00 | 53 | 1014.4 |
| 20260904192507 | 77 | 255 | 10.0 | 12.0 | 0.00 | 0.00 | 0.00 | 53 | 1014.5 |
| 20260904192008 | 77 | 247 | 11.0 | 14.0 | 0.00 | 0.00 | 0.00 | 52 | 1014.5 |
| 20260904191507 | 77 | 249 | 14.0 | 15.0 | 0.00 | 0.00 | 0.00 | 52 | 1014.4 |
| 20260904191007 | 77 | 238 | 15.0 | 21.0 | 0.00 | 0.00 | 0.00 | 52 | 1014.4 |
| 20260904190508 | 77 | 241 | 12.0 | 15.0 | 0.00 | 0.00 | 0.00 | 52 | 1014.3 |
| 20260904190008 | 78 | 236 | 9.0 | 14.0 | 0.00 | 0.00 | 0.00 | 52 | 1014.1 |
| 20260904185507 | 78 | 242 | 11.0 | 14.0 | 0.00 | 0.00 | 0.00 | 51 | 1014.2 |
| 20260904185008 | 78 | 227 | 6.0 | 16.0 | 0.00 | 0.00 | 0.00 | 51 | 1014.1 |
| 20260904184508 | 78 | 247 | 9.0 | 15.0 | 0.00 | 0.00 | 0.00 | 51 | 1014.4 |
| 20260904184008 | 78 | 228 | 12.0 | 14.0 | 0.00 | 0.00 | 0.00 | 51 | 1014.5 |
| 20260904183508 | 78 | 247 | 10.0 | 10.0 | 0.00 | 0.00 | 0.00 | 51 | 1014.2 |
| 20260904183008 | 78 | 240 | 12.0 | 21.0 | 0.00 | 0.00 | 0.00 | 50 | 1014.0 |
| 20260904182507 | 78 | 239 | 14.0 | 20.0 | 0.00 | 0.00 | 0.00 | 51 | 1014.2 |
| 20260904182007 | 78 | 241 | 20.0 | 21.0 | 0.00 | 0.00 | 0.00 | 51 | 1014.1 |
| 20260904181508 | 78 | 248 | 13.0 | 14.0 | 0.00 | 0.00 | 0.00 | 51 | 1014.4 |
| 20260904181007 | 78 | 255 | 11.0 | 12.0 | 0.00 | 0.00 | 0.00 | 51 | 1014.3 |
| 20260904180508 | 78 | 246 | 17.0 | 18.0 | 0.00 | 0.00 | 0.00 | 51 | 1014.3 |
| 20260904180007 | 78 | 236 | 9.0 | 11.0 | 0.00 | 0.00 | 0.00 | 51 | 1014.2 |
| 20260904175507 | 78 | 253 | 11.0 | 13.0 | 0.00 | 0.00 | 0.00 | 51 | 1014.3 |
| 20260904175008 | 78 | 289 | 7.0 | 12.0 | 0.00 | 0.00 | 0.00 | 50 | 1014.4 |
| 20260904174507 | 79 | 258 | 10.0 | 11.0 | 0.00 | 0.00 | 0.00 | 50 | 1014.4 |
| 20260904174007 | 79 | 274 | 8.0 | 16.0 | 0.00 | 0.00 | 0.00 | 50 | 1014.6 |
| 20260904173507 | 79 | 268 | 19.0 | 20.0 | 0.00 | 0.00 | 0.00 | 49 | 1014.6 |
| 20260904173008 | 79 | 267 | 9.0 | 17.0 | 0.00 | 0.00 | 0.00 | 49 | 1014.6 |
| 20260904172507 | 79 | 267 | 13.0 | 14.0 | 0.00 | 0.00 | 0.00 | 49 | 1014.5 |
| 20260904172007 | 79 | 267 | 14.0 | 15.0 | 0.00 | 0.00 | 0.00 | 49 | 1014.5 |
| 20260904171507 | 79 | 243 | 11.0 | 18.0 | 0.00 | 0.00 | 0.00 | 50 | 1014.7 |
| 20260904171007 | 79 | 283 | 12.0 | 14.0 | 0.00 | 0.00 | 0.00 | 50 | 1014.6 |
| 20260904170507 | 79 | 269 | 10.0 | 14.0 | 0.00 | 0.00 | 0.00 | 49 | 1014.5 |
| 20260904170008 | 80 | 279 | 16.0 | 21.0 | 0.00 | 0.00 | 0.00 | 49 | 1014.6 |
| 20260904165508 | 80 | 265 | 15.0 | 17.0 | 0.00 | 0.00 | 0.00 | 48 | 1014.1 |
| 20260904165008 | 80 | 267 | 11.0 | 12.0 | 0.00 | 0.00 | 0.00 | 48 | 1014.4 |
| 20260904164508 | 80 | 274 | 17.0 | 18.0 | 0.00 | 0.00 | 0.00 | 49 | 1014.1 |
| 20260904164008 | 80 | 210 | 8.0 | 20.0 | 0.00 | 0.00 | 0.00 | 49 | 1014.4 |
| 20260904163507 | 80 | 259 | 10.0 | 13.0 | 0.00 | 0.00 | 0.00 | 48 | 1014.5 |
| 20260904163008 | 80 | 260 | 18.0 | 18.0 | 0.00 | 0.00 | 0.00 | 49 | 1014.3 |
| 20260904162507 | 80 | 273 | 14.0 | 24.0 | 0.00 | 0.00 | 0.00 | 48 | 1014.4 |
| 20260904162007 | 80 | 271 | 19.0 | 20.0 | 0.00 | 0.00 | 0.00 | 48 | 1014.3 |
| 20260904161508 | 80 | 244 | 18.0 | 19.0 | 0.00 | 0.00 | 0.00 | 48 | 1014.1 |
| 20260904161007 | 80 | 271 | 11.0 | 14.0 | 0.00 | 0.00 | 0.00 | 48 | 1014.3 |
| 20260904160508 | 80 | 250 | 19.0 | 21.0 | 0.00 | 0.00 | 0.00 | 48 | 1014.1 |
| 20260904160008 | 80 | 230 | 15.0 | 17.0 | 0.00 | 0.00 | 0.00 | 48 | 1014.4 |
| 20260904155508 | 80 | 265 | 11.0 | 26.0 | 0.00 | 0.00 | 0.00 | 48 | 1014.0 |
| 20260904155008 | 80 | 230 | 13.0 | 20.0 | 0.00 | 0.00 | 0.00 | 48 | 1014.2 |
| 20260904154508 | 80 | 248 | 17.0 | 23.0 | 0.00 | 0.00 | 0.00 | 48 | 1014.2 |
| 20260904154007 | 80 | 252 | 6.0 | 25.0 | 0.00 | 0.00 | 0.00 | 49 | 1014.4 |
| 20260904153508 | 80 | 257 | 15.0 | 21.0 | 0.00 | 0.00 | 0.00 | 48 | 1014.4 |
| 20260904153008 | 80 | 253 | 21.0 | 25.0 | 0.00 | 0.00 | 0.00 | 48 | 1014.4 |
| 20260904152508 | 80 | 245 | 13.0 | 19.0 | 0.00 | 0.00 | 0.00 | 48 | 1014.2 |
| 20260904152008 | 80 | 256 | 9.0 | 16.0 | 0.00 | 0.00 | 0.00 | 50 | 1014.5 |
| 20260904151507 | 80 | 249 | 22.0 | 23.0 | 0.00 | 0.00 | 0.00 | 49 | 1014.6 |
| 20260904151007 | 80 | 250 | 13.0 | 21.0 | 0.00 | 0.00 | 0.00 | 50 | 1014.8 |
| 20260904150509 | 80 | 235 | 22.0 | 23.0 | 0.00 | 0.00 | 0.00 | 49 | 1014.6 |
| 20260904150009 | 80 | 237 | 20.0 | 21.0 | 0.00 | 0.00 | 0.00 | 49 | 1014.8 |
| 20260904145508 | 80 | 253 | 22.0 | 27.0 | 0.00 | 0.00 | 0.00 | 50 | 1014.8 |
| 20260904145007 | 79 | 257 | 16.0 | 24.0 | 0.00 | 0.00 | 0.00 | 51 | 1014.9 |
| 20260904144508 | 79 | 231 | 23.0 | 24.0 | 0.00 | 0.00 | 0.00 | 50 | 1015.1 |
| 20260904144008 | 79 | 248 | 22.0 | 26.0 | 0.00 | 0.00 | 0.00 | 51 | 1014.7 |
| 20260904143507 | 79 | 257 | 13.0 | 25.0 | 0.00 | 0.00 | 0.00 | 50 | 1015.0 |
| 20260904143008 | 79 | 243 | 24.0 | 35.0 | 0.00 | 0.00 | 0.00 | 51 | 1015.2 |
| 20260904142508 | 79 | 240 | 27.0 | 27.0 | 0.00 | 0.00 | 0.00 | 51 | 1015.1 |
| 20260904142008 | 79 | 258 | 21.0 | 33.0 | 0.00 | 0.00 | 0.00 | 51 | 1015.5 |
| 20260904141508 | 79 | 261 | 19.0 | 25.0 | 0.00 | 0.00 | 0.00 | 51 | 1015.4 |
| 20260904141008 | 79 | 235 | 20.0 | 29.0 | 0.00 | 0.00 | 0.00 | 51 | 1015.4 |
| 20260904140507 | 78 | 239 | 18.0 | 21.0 | 0.00 | 0.00 | 0.00 | 52 | 1015.4 |
| 20260904140008 | 78 | 248 | 16.0 | 24.0 | 0.00 | 0.00 | 0.00 | 52 | 1015.5 |
| 20260904135508 | 78 | 199 | 7.0 | 20.0 | 0.00 | 0.00 | 0.00 | 53 | 1015.8 |
| 20260904135008 | 78 | 247 | 19.0 | 26.0 | 0.00 | 0.00 | 0.00 | 52 | 1016.2 |
| 20260904134508 | 78 | 272 | 11.0 | 17.0 | 0.00 | 0.00 | 0.00 | 53 | 1016.1 |
| 20260904134007 | 78 | 251 | 13.0 | 17.0 | 0.00 | 0.00 | 0.00 | 53 | 1016.0 |
| 20260904133508 | 78 | 252 | 17.0 | 22.0 | 0.00 | 0.00 | 0.00 | 53 | 1015.9 |
| 20260904133008 | 77 | 241 | 19.0 | 24.0 | 0.00 | 0.00 | 0.00 | 53 | 1016.2 |
| 20260904132508 | 78 | 256 | 22.0 | 27.0 | 0.00 | 0.00 | 0.00 | 54 | 1016.2 |
| 20260904132008 | 77 | 269 | 14.0 | 17.0 | 0.00 | 0.00 | 0.00 | 54 | 1016.4 |
| 20260904131508 | 78 | 236 | 11.0 | 12.0 | 0.00 | 0.00 | 0.00 | 54 | 1016.3 |
| 20260904131008 | 78 | 254 | 19.0 | 20.0 | 0.00 | 0.00 | 0.00 | 54 | 1016.4 |
| 20260904130509 | 77 | 266 | 17.0 | 17.0 | 0.00 | 0.00 | 0.00 | 54 | 1016.5 |
| 20260904130008 | 77 | 275 | 15.0 | 21.0 | 0.00 | 0.00 | 0.00 | 56 | 1016.9 |
| 20260904125508 | 77 | 236 | 13.0 | 23.0 | 0.00 | 0.00 | 0.00 | 55 | 1016.8 |
| 20260904125008 | 77 | 253 | 13.0 | 13.0 | 0.00 | 0.00 | 0.00 | 56 | 1016.9 |
| 20260904124508 | 77 | 279 | 10.0 | 15.0 | 0.00 | 0.00 | 0.00 | 55 | 1016.6 |
| 20260904124008 | 77 | 259 | 21.0 | 23.0 | 0.00 | 0.00 | 0.00 | 55 | 1016.9 |
| 20260904123508 | 77 | 248 | 23.0 | 29.0 | 0.00 | 0.00 | 0.00 | 54 | 1017.1 |
| 20260904123008 | 77 | 261 | 19.0 | 25.0 | 0.00 | 0.00 | 0.00 | 55 | 1017.0 |
| 20260904122507 | 77 | 244 | 15.0 | 20.0 | 0.00 | 0.00 | 0.00 | 55 | 1017.3 |
| 20260904122007 | 76 | 265 | 17.0 | 21.0 | 0.00 | 0.00 | 0.00 | 56 | 1017.1 |
| 20260904121508 | 76 | 245 | 23.0 | 27.0 | 0.00 | 0.00 | 0.00 | 57 | 1017.2 |
| 20260904121008 | 77 | 265 | 19.0 | 21.0 | 0.00 | 0.00 | 0.00 | 57 | 1017.3 |
| 20260904120509 | 76 | 247 | 17.0 | 17.0 | 0.00 | 0.00 | 0.00 | 57 | 1017.4 |
| 20260904120007 | 75 | 285 | 15.0 | 21.0 | 0.00 | 0.00 | 0.00 | 59 | 1017.4 |
| 20260904115509 | 76 | 265 | 11.0 | 17.0 | 0.00 | 0.00 | 0.00 | 58 | 1017.4 |
| 20260904115008 | 76 | 252 | 17.0 | 23.0 | 0.00 | 0.00 | 0.00 | 58 | 1017.6 |
| 20260904114507 | 76 | 234 | 28.0 | 29.0 | 0.00 | 0.00 | 0.00 | 57 | 1017.7 |
| 20260904114007 | 75 | 262 | 9.0 | 22.0 | 0.00 | 0.00 | 0.00 | 60 | 1017.4 |
| 20260904113508 | 75 | 256 | 20.0 | 24.0 | 0.00 | 0.00 | 0.00 | 60 | 1017.5 |
| 20260904113007 | 75 | 260 | 18.0 | 20.0 | 0.00 | 0.00 | 0.00 | 60 | 1017.7 |
| 20260904112507 | 75 | 253 | 19.0 | 22.0 | 0.00 | 0.00 | 0.00 | 60 | 1017.7 |
| 20260904112009 | 74 | 226 | 10.0 | 14.0 | 0.00 | 0.00 | 0.00 | 63 | 1017.8 |
| 20260904111508 | 74 | 240 | 14.0 | 25.0 | 0.00 | 0.00 | 0.00 | 62 | 1017.8 |
| 20260904111007 | 75 | 297 | 5.0 | 19.0 | 0.00 | 0.00 | 0.00 | 62 | 1017.7 |
| 20260904110509 | 74 | 274 | 14.0 | 20.0 | 0.00 | 0.00 | 0.00 | 62 | 1018.0 |
| 20260904110008 | 74 | 235 | 21.0 | 21.0 | 0.00 | 0.00 | 0.00 | 62 | 1018.0 |
| 20260904105508 | 74 | 222 | 11.0 | 25.0 | 0.00 | 0.00 | 0.00 | 63 | 1018.1 |
| 20260904105008 | 73 | 262 | 18.0 | 19.0 | 0.00 | 0.00 | 0.00 | 63 | 1018.0 |
| 20260904104508 | 73 | 253 | 14.0 | 17.0 | 0.00 | 0.00 | 0.00 | 64 | 1018.5 |
| 20260904104008 | 73 | 252 | 12.0 | 13.0 | 0.00 | 0.00 | 0.00 | 64 | 1018.3 |
| 20260904103507 | 73 | 254 | 13.0 | 17.0 | 0.00 | 0.00 | 0.00 | 64 | 1018.6 |
| 20260904103008 | 73 | 281 | 25.0 | 28.0 | 0.00 | 0.00 | 0.00 | 63 | 1018.7 |
| 20260904102507 | 73 | 254 | 17.0 | 25.0 | 0.00 | 0.00 | 0.00 | 64 | 1018.3 |
| 20260904102008 | 73 | 261 | 16.0 | 24.0 | 0.00 | 0.00 | 0.00 | 65 | 1018.4 |
| 20260904101507 | 72 | 273 | 11.0 | 21.0 | 0.00 | 0.00 | 0.00 | 65 | 1018.6 |
| 20260904101007 | 72 | 241 | 19.0 | 22.0 | 0.00 | 0.00 | 0.00 | 65 | 1018.8 |
| 20260904100506 | 72 | 254 | 16.0 | 21.0 | 0.00 | 0.00 | 0.00 | 65 | 1018.5 |
| 20260904100007 | 72 | 254 | 11.0 | 17.0 | 0.00 | 0.00 | 0.00 | 65 | 1018.8 |
| 20260904095507 | 72 | 256 | 10.0 | 25.0 | 0.00 | 0.00 | 0.00 | 66 | 1018.9 |
| 20260904095008 | 72 | 267 | 13.0 | 20.0 | 0.00 | 0.00 | 0.00 | 66 | 1018.8 |
| 20260904094508 | 72 | 259 | 20.0 | 21.0 | 0.00 | 0.00 | 0.00 | 65 | 1018.9 |
| 20260904094007 | 72 | 258 | 14.0 | 21.0 | 0.00 | 0.00 | 0.00 | 66 | 1019.0 |
| 20260904093507 | 72 | 262 | 21.0 | 22.0 | 0.00 | 0.00 | 0.00 | 65 | 1018.8 |
| 20260904093008 | 72 | 252 | 24.0 | 27.0 | 0.00 | 0.00 | 0.00 | 66 | 1019.0 |
| 20260904092507 | 71 | 261 | 23.0 | 30.0 | 0.00 | 0.00 | 0.00 | 66 | 1018.8 |
| 20260904092008 | 71 | 257 | 25.0 | 25.0 | 0.00 | 0.00 | 0.00 | 67 | 1019.1 |
| 20260904091507 | 71 | 254 | 21.0 | 26.0 | 0.00 | 0.00 | 0.00 | 66 | 1019.0 |
| 20260904091006 | 71 | 259 | 12.0 | 17.0 | 0.00 | 0.00 | 0.00 | 68 | 1018.9 |
| 20260904090509 | 71 | 230 | 15.0 | 19.0 | 0.00 | 0.00 | 0.00 | 67 | 1019.0 |
| 20260904090007 | 71 | 255 | 10.0 | 12.0 | 0.00 | 0.00 | 0.00 | 68 | 1019.2 |
| 20260904085508 | 70 | 237 | 6.0 | 8.0 | 0.00 | 0.00 | 0.00 | 68 | 1019.2 |
| 20260904085008 | 70 | 279 | 19.0 | 20.0 | 0.00 | 0.00 | 0.00 | 68 | 1019.5 |
| 20260904084508 | 69 | 249 | 14.0 | 24.0 | 0.00 | 0.00 | 0.00 | 68 | 1019.3 |
| 20260904084007 | 70 | 264 | 18.0 | 19.0 | 0.00 | 0.00 | 0.00 | 68 | 1019.4 |
| 20260904083508 | 69 | 259 | 21.0 | 22.0 | 0.00 | 0.00 | 0.00 | 69 | 1019.6 |
| 20260904083008 | 69 | 257 | 19.0 | 20.0 | 0.00 | 0.00 | 0.00 | 70 | 1019.6 |
| 20260904082507 | 69 | 251 | 12.0 | 15.0 | 0.00 | 0.00 | 0.00 | 70 | 1019.7 |
| 20260904082007 | 69 | 250 | 10.0 | 11.0 | 0.00 | 0.00 | 0.00 | 70 | 1019.5 |
| 20260904081508 | 69 | 250 | 10.0 | 16.0 | 0.00 | 0.00 | 0.00 | 71 | 1019.6 |
| 20260904081006 | 68 | 271 | 6.0 | 14.0 | 0.00 | 0.00 | 0.00 | 71 | 1019.5 |
| 20260904080508 | 68 | 245 | 8.0 | 12.0 | 0.00 | 0.00 | 0.00 | 73 | 1019.7 |
| 20260904080007 | 68 | 252 | 12.0 | 17.0 | 0.00 | 0.00 | 0.00 | 73 | 1019.7 |
| 20260904075508 | 67 | 255 | 11.0 | 15.0 | 0.00 | 0.00 | 0.00 | 74 | 1019.5 |
| 20260904075008 | 67 | 243 | 13.0 | 14.0 | 0.00 | 0.00 | 0.00 | 74 | 1019.5 |
| 20260904074508 | 67 | 248 | 17.0 | 20.0 | 0.00 | 0.00 | 0.00 | 73 | 1019.7 |
| 20260904074007 | 67 | 252 | 16.0 | 22.0 | 0.00 | 0.00 | 0.00 | 73 | 1019.6 |
| 20260904073508 | 66 | 242 | 9.0 | 13.0 | 0.00 | 0.00 | 0.00 | 74 | 1019.7 |
| 20260904073008 | 66 | 232 | 14.0 | 16.0 | 0.00 | 0.00 | 0.00 | 74 | 1019.5 |
| 20260904072508 | 66 | 250 | 13.0 | 18.0 | 0.00 | 0.00 | 0.00 | 75 | 1019.6 |
| 20260904072008 | 66 | 245 | 14.0 | 19.0 | 0.00 | 0.00 | 0.00 | 75 | 1019.6 |
| 20260904071508 | 66 | 248 | 17.0 | 19.0 | 0.00 | 0.00 | 0.00 | 75 | 1019.8 |
| 20260904071006 | 65 | 242 | 21.0 | 22.0 | 0.00 | 0.00 | 0.00 | 75 | 1019.5 |
| 20260904070507 | 65 | 212 | 10.0 | 12.0 | 0.00 | 0.00 | 0.00 | 76 | 1019.7 |
| 20260904070007 | 65 | 246 | 11.0 | 14.0 | 0.00 | 0.00 | 0.00 | 76 | 1019.7 |
| 20260904065507 | 65 | 235 | 17.0 | 17.0 | 0.00 | 0.00 | 0.00 | 76 | 1019.8 |
| 20260904065007 | 64 | 241 | 12.0 | 14.0 | 0.00 | 0.00 | 0.00 | 76 | 1019.9 |
| 20260904064507 | 64 | 241 | 12.0 | 14.0 | 0.00 | 0.00 | 0.00 | 76 | 1019.8 |
| 20260904064008 | 64 | 250 | 11.0 | 15.0 | 0.00 | 0.00 | 0.00 | 76 | 1019.5 |
| 20260904063508 | 64 | 230 | 8.0 | 10.0 | 0.00 | 0.00 | 0.00 | 76 | 1019.7 |
| 20260904063008 | 64 | 231 | 8.0 | 14.0 | 0.00 | 0.00 | 0.00 | 76 | 1019.9 |
| 20260904062509 | 30 | 0 | 0.0 | 0.0 | 0.00 | 0.00 | 0.00 | 100 | 1019.7 |
| 20260904062008 | 30 | 0 | 0.0 | 0.0 | 0.00 | 0.00 | 0.00 | 100 | 1019.6 |
| 20260904061508 | 63 | 225 | 8.0 | 11.0 | 0.00 | 0.00 | 0.00 | 77 | 1019.9 |
| 20260904061008 | 63 | 225 | 8.0 | 11.0 | 0.00 | 0.00 | 0.00 | 77 | 1019.7 |
| 20260904060508 | 63 | 241 | 7.0 | 8.0 | 0.00 | 0.00 | 0.00 | 78 | 1019.6 |
| 20260904060008 | 63 | 241 | 7.0 | 8.0 | 0.00 | 0.00 | 0.00 | 78 | 1019.6 |
| 20260904055507 | 63 | 245 | 12.0 | 12.0 | 0.00 | 0.00 | 0.00 | 77 | 1019.8 |
| 20260904055007 | 30 | 0 | 0.0 | 0.0 | 0.00 | 0.00 | 0.00 | 100 | 1019.8 |
| 20260904054507 | 30 | 0 | 0.0 | 0.0 | 0.00 | 0.00 | 0.00 | 100 | 1019.7 |
| 20260904054007 | 63 | 254 | 11.0 | 13.0 | 0.00 | 0.00 | 0.00 | 77 | 1019.6 |
| 20260904053507 | 63 | 254 | 11.0 | 13.0 | 0.00 | 0.00 | 0.00 | 77 | 1019.8 |
| 20260904053008 | 63 | 261 | 11.0 | 13.0 | 0.00 | 0.00 | 0.00 | 77 | 1019.9 |
| 20260904052508 | 63 | 242 | 10.0 | 11.0 | 0.00 | 0.00 | 0.00 | 77 | 1019.9 |
| 20260904052008 | 63 | 245 | 13.0 | 14.0 | 0.00 | 0.00 | 0.00 | 78 | 1019.9 |
| 20260904051507 | 62 | 231 | 10.0 | 12.0 | 0.00 | 0.00 | 0.00 | 78 | 1019.9 |
| 20260904051007 | 62 | 249 | 11.0 | 12.0 | 0.00 | 0.00 | 0.00 | 78 | 1020.3 |
| 20260904050507 | 63 | 235 | 9.0 | 10.0 | 0.00 | 0.00 | 0.00 | 78 | 1020.2 |
| 20260904050008 | 63 | 235 | 9.0 | 10.0 | 0.00 | 0.00 | 0.00 | 78 | 1020.0 |
| 20260904045508 | 63 | 237 | 8.0 | 10.0 | 0.00 | 0.00 | 0.00 | 78 | 1020.0 |
| 20260904045008 | 62 | 233 | 8.0 | 9.0 | 0.00 | 0.00 | 0.00 | 78 | 1020.1 |
| 20260904044508 | 62 | 252 | 9.0 | 10.0 | 0.00 | 0.00 | 0.00 | 79 | 1019.9 |
| 20260904044008 | 62 | 252 | 9.0 | 10.0 | 0.00 | 0.00 | 0.00 | 79 | 1020.0 |
| 20260904043507 | 62 | 241 | 5.0 | 7.0 | 0.00 | 0.00 | 0.00 | 79 | 1019.9 |
| 20260904043007 | 63 | 241 | 8.0 | 11.0 | 0.00 | 0.00 | 0.00 | 78 | 1020.0 |
| 20260904042508 | 30 | 0 | 0.0 | 0.0 | 0.00 | 0.00 | 0.00 | 100 | 1019.8 |
| 20260904042008 | 63 | 233 | 14.0 | 15.0 | 0.00 | 0.00 | 0.00 | 77 | 1019.8 |
| 20260904041508 | 63 | 233 | 14.0 | 15.0 | 0.00 | 0.00 | 0.00 | 77 | 1019.8 |
| 20260904041006 | 63 | 238 | 13.0 | 14.0 | 0.00 | 0.00 | 0.00 | 77 | 1019.8 |
| 20260904040508 | 63 | 221 | 12.0 | 16.0 | 0.00 | 0.00 | 0.00 | 77 | 1019.8 |
| 20260904040008 | 63 | 213 | 11.0 | 13.0 | 0.00 | 0.00 | 0.00 | 78 | 1019.6 |
| 20260904035507 | 63 | 253 | 10.0 | 12.0 | 0.00 | 0.00 | 0.00 | 78 | 1019.7 |
| 20260904035008 | 63 | 227 | 10.0 | 14.0 | 0.00 | 0.00 | 0.00 | 78 | 1020.0 |
| 20260904034508 | 63 | 229 | 10.0 | 13.0 | 0.00 | 0.00 | 0.00 | 78 | 1020.0 |
| 20260904034008 | 63 | 230 | 10.0 | 11.0 | 0.00 | 0.00 | 0.00 | 79 | 1019.8 |
| 20260904033507 | 63 | 244 | 10.0 | 15.0 | 0.00 | 0.00 | 0.00 | 79 | 1019.8 |
| 20260904033007 | 62 | 251 | 11.0 | 12.0 | 0.00 | 0.00 | 0.00 | 79 | 1020.0 |
| 20260904032507 | 63 | 241 | 15.0 | 15.0 | 0.00 | 0.00 | 0.00 | 79 | 1020.0 |
| 20260904032007 | 62 | 242 | 18.0 | 19.0 | 0.00 | 0.00 | 0.00 | 80 | 1020.2 |
| 20260904031508 | 62 | 231 | 14.0 | 14.0 | 0.00 | 0.00 | 0.00 | 80 | 1020.1 |
| 20260904031007 | 62 | 241 | 11.0 | 12.0 | 0.00 | 0.00 | 0.00 | 80 | 1020.1 |
| 20260904030507 | 62 | 200 | 6.0 | 12.0 | 0.00 | 0.00 | 0.00 | 80 | 1020.2 |
| 20260904030008 | 62 | 242 | 7.0 | 11.0 | 0.00 | 0.00 | 0.00 | 81 | 1020.3 |
| 20260904025508 | 62 | 235 | 10.0 | 12.0 | 0.00 | 0.00 | 0.00 | 81 | 1020.4 |
| 20260904025007 | 62 | 241 | 10.0 | 18.0 | 0.00 | 0.00 | 0.00 | 81 | 1020.3 |
| 20260904024507 | 62 | 244 | 16.0 | 18.0 | 0.00 | 0.00 | 0.00 | 81 | 1020.2 |
| 20260904024008 | 62 | 241 | 10.0 | 10.0 | 0.00 | 0.00 | 0.00 | 82 | 1020.4 |
| 20260904023508 | 62 | 253 | 15.0 | 17.0 | 0.00 | 0.00 | 0.00 | 81 | 1020.3 |
| 20260904023008 | 62 | 253 | 15.0 | 17.0 | 0.00 | 0.00 | 0.00 | 81 | 1020.4 |
| 20260904022508 | 62 | 235 | 12.0 | 13.0 | 0.00 | 0.00 | 0.00 | 81 | 1020.3 |
| 20260904022007 | 62 | 250 | 10.0 | 14.0 | 0.00 | 0.00 | 0.00 | 81 | 1020.3 |
| 20260904021508 | 62 | 244 | 13.0 | 14.0 | 0.00 | 0.00 | 0.00 | 81 | 1020.4 |
| 20260904021007 | 62 | 244 | 13.0 | 14.0 | 0.00 | 0.00 | 0.00 | 81 | 1020.3 |
| 20260904020507 | 62 | 237 | 7.0 | 9.0 | 0.00 | 0.00 | 0.00 | 81 | 1020.4 |
| 20260904020007 | 62 | 268 | 7.0 | 10.0 | 0.00 | 0.00 | 0.00 | 80 | 1020.5 |
| 20260904015507 | 62 | 248 | 9.0 | 10.0 | 0.00 | 0.00 | 0.00 | 80 | 1020.5 |
| 20260904015008 | 62 | 235 | 6.0 | 9.0 | 0.00 | 0.00 | 0.00 | 80 | 1020.3 |
| 20260904014508 | 62 | 251 | 7.0 | 11.0 | 0.00 | 0.00 | 0.00 | 80 | 1020.4 |
| 20260904014008 | 62 | 229 | 7.0 | 10.0 | 0.00 | 0.00 | 0.00 | 81 | 1020.2 |
| 20260904013507 | 62 | 241 | 8.0 | 8.0 | 0.00 | 0.00 | 0.00 | 81 | 1020.4 |
| 20260904013007 | 62 | 244 | 11.0 | 12.0 | 0.00 | 0.00 | 0.00 | 81 | 1020.4 |
| 20260904012507 | 62 | 255 | 10.0 | 14.0 | 0.00 | 0.00 | 0.00 | 81 | 1020.6 |
| 20260904012007 | 62 | 251 | 9.0 | 10.0 | 0.00 | 0.00 | 0.00 | 81 | 1020.5 |
| 20260904011507 | 62 | 254 | 9.0 | 11.0 | 0.00 | 0.00 | 0.00 | 81 | 1020.7 |
| 20260904011008 | 62 | 265 | 9.0 | 15.0 | 0.00 | 0.00 | 0.00 | 81 | 1020.5 |
| 20260904010508 | 62 | 246 | 11.0 | 12.0 | 0.00 | 0.00 | 0.00 | 81 | 1020.4 |
| 20260904010008 | 62 | 228 | 10.0 | 14.0 | 0.00 | 0.00 | 0.00 | 81 | 1020.6 |
| 20260904005507 | 62 | 252 | 16.0 | 16.0 | 0.00 | 0.00 | 0.00 | 81 | 1020.8 |
| 20260904005007 | 62 | 237 | 8.0 | 12.0 | 0.00 | 0.00 | 0.00 | 80 | 1020.6 |
| 20260904004508 | 62 | 246 | 9.0 | 10.0 | 0.00 | 0.00 | 0.00 | 80 | 1020.3 |
| 20260904004007 | 62 | 221 | 9.0 | 12.0 | 0.00 | 0.00 | 0.00 | 80 | 1020.5 |
| 20260904003507 | 62 | 241 | 10.0 | 12.0 | 0.00 | 0.00 | 0.00 | 80 | 1020.4 |
| 20260904003008 | 62 | 241 | 11.0 | 15.0 | 0.00 | 0.00 | 0.00 | 80 | 1020.6 |
| 20260904002509 | 62 | 250 | 11.0 | 14.0 | 0.00 | 0.00 | 0.00 | 80 | 1020.6 |
| 20260904002007 | 62 | 253 | 10.0 | 11.0 | 0.00 | 0.00 | 0.00 | 80 | 1020.6 |
| 20260904001507 | 62 | 236 | 11.0 | 13.0 | 0.00 | 0.00 | 0.00 | 80 | 1020.9 |